Time;durP1;ratioP1;P1;durP2;ratioP2;P2;SDS_P1;SDS_P2;PMS_P1;PMS_P2;Temp;Humidity;BMP_temperature;BMP_pressure;BME280_temperature;BME280_humidity;BME280_pressure;Samples;Min_cycle;Max_cycle;Signal;HPM_P1;HPM_P2
2022/06/02 00:00:10;;;;;;;;;;;26.00;61.60;;;;;;679389;29;1210;-88
2022/06/02 00:00:38;;;;;;;;;;;26.00;61.60;;;;;;678694;29;891;-89
2022/06/02 00:01:06;;;;;;;;;;;26.00;61.80;;;;;;682434;29;1289;-88
2022/06/02 00:01:26;;;;;;;;;;;26.00;61.70;;;;;;680419;29;769;-89
2022/06/02 00:01:58;;;;;;;;;;;26.00;62.40;;;;;;680278;29;1226;-87
2022/06/02 00:02:18;;;;;;;;;;;26.00;61.60;;;;;;677845;29;887;-88
2022/06/02 00:02:39;;;;;;;;;;;26.00;61.70;;;;;;680442;29;1195;-88
2022/06/02 00:03:25;;;;;;;;;;;26.00;61.70;;;;;;682891;29;1197;-89
2022/06/02 00:04:04;;;;;;;;;;;26.00;61.40;;;;;;678677;29;1303;-88
2022/06/02 00:04:37;;;;;;;;;;;25.90;61.30;;;;;;679908;29;816;-89
2022/06/02 00:05:16;;;;;;;;;;;25.90;61.60;;;;;;677493;29;1192;-88
2022/06/02 00:05:53;;;;;;;;;;;25.90;61.60;;;;;;678987;29;824;-89
2022/06/02 00:06:23;;;;;;;;;;;26.00;61.70;;;;;;682635;29;1332;-88
2022/06/02 00:07:01;;;;;;;;;;;25.90;61.60;;;;;;683620;28;855;-89
2022/06/02 00:07:22;;;;;;;;;;;26.00;61.70;;;;;;683172;29;792;-88
2022/06/02 00:08:04;;;;;;;;;;;25.90;61.60;;;;;;683101;29;934;-88
2022/06/02 00:08:28;;;;;;;;;;;25.90;61.60;;;;;;680500;29;1304;-89
2022/06/02 00:09:01;;;;;;;;;;;25.90;61.80;;;;;;682948;29;1410;-88
2022/06/02 00:09:27;;;;;;;;;;;25.90;61.60;;;;;;682885;29;1251;-89
2022/06/02 00:09:48;;;;;;;;;;;25.90;61.60;;;;;;680304;29;1127;-88
2022/06/02 00:10:31;;;;;;;;;;;25.90;61.70;;;;;;680410;29;1072;-88
2022/06/02 00:11:03;;;;;;;;;;;25.90;61.60;;;;;;680614;29;832;-87
2022/06/02 00:11:29;;;;;;;;;;;25.90;61.80;;;;;;680585;29;1283;-89
2022/06/02 00:11:58;;;;;;;;;;;25.90;61.90;;;;;;680864;29;858;-88
2022/06/02 00:12:24;;;;;;;;;;;25.90;61.70;;;;;;683295;29;889;-89
2022/06/02 00:12:47;;;;;;;;;;;25.90;61.80;;;;;;681637;29;843;-89
2022/06/02 00:13:14;;;;;;;;;;;25.90;61.70;;;;;;683445;28;1116;-87
2022/06/02 00:13:41;;;;;;;;;;;25.90;61.80;;;;;;683175;29;863;-87
2022/06/02 00:14:12;;;;;;;;;;;25.90;61.70;;;;;;682905;29;1156;-88
2022/06/02 00:14:51;;;;;;;;;;;25.90;61.60;;;;;;683055;29;1382;-88
2022/06/02 00:15:31;;;;;;;;;;;25.90;61.70;;;;;;683092;29;1227;-87
2022/06/02 00:15:57;;;;;;;;;;;25.90;61.70;;;;;;684282;29;1414;-85
2022/06/02 00:16:25;;;;;;;;;;;25.90;61.70;;;;;;683483;29;1353;-88
2022/06/02 00:17:04;;;;;;;;;;;25.90;61.60;;;;;;683477;29;1289;-87
2022/06/02 00:17:27;;;;;;;;;;;25.90;61.60;;;;;;683302;29;1147;-89
2022/06/02 00:17:52;;;;;;;;;;;26.00;61.80;;;;;;685466;29;1144;-87
2022/06/02 00:18:29;;;;;;;;;;;25.90;61.60;;;;;;683231;29;1215;-87
2022/06/02 00:18:51;;;;;;;;;;;25.90;61.60;;;;;;683406;29;1304;-86
2022/06/02 00:19:21;;;;;;;;;;;25.90;61.70;;;;;;683004;29;1121;-86
2022/06/02 00:19:53;;;;;;;;;;;26.00;62.00;;;;;;682551;29;931;-85
2022/06/02 00:20:27;;;;;;;;;;;26.00;61.70;;;;;;680629;29;1262;-89
2022/06/02 00:20:48;;;;;;;;;;;26.00;61.70;;;;;;680951;29;1244;-88
2022/06/02 00:21:14;;;;;;;;;;;26.00;62.20;;;;;;685941;29;965;-89
2022/06/02 00:21:49;;;;;;;;;;;26.00;61.70;;;;;;686148;29;1084;-87
2022/06/02 00:22:30;;;;;;;;;;;26.00;61.70;;;;;;685660;29;985;-85
2022/06/02 00:22:50;;;;;;;;;;;25.90;61.60;;;;;;680427;29;1108;-87
2022/06/02 00:23:14;;;;;;;;;;;26.00;63.20;;;;;;677870;29;973;-87
2022/06/02 00:23:34;;;;;;;;;;;26.00;61.70;;;;;;677791;29;989;-87
2022/06/02 00:24:10;;;;;;;;;;;26.00;61.80;;;;;;677771;29;1000;-87
2022/06/02 00:24:30;;;;;;;;;;;26.00;61.70;;;;;;678032;29;921;-87
2022/06/02 00:25:29;;;;;;;;;;;26.00;62.00;;;;;;678073;29;919;-86
2022/06/02 00:26:07;;;;;;;;;;;25.90;61.60;;;;;;677869;29;1351;-86
2022/06/02 00:26:49;;;;;;;;;;;26.00;61.70;;;;;;678132;29;907;-86
2022/06/02 00:27:22;;;;;;;;;;;26.00;61.60;;;;;;677908;29;1017;-88
2022/06/02 00:27:48;;;;;;;;;;;26.00;61.50;;;;;;677697;29;1388;-88
2022/06/02 00:28:08;;;;;;;;;;;26.00;61.60;;;;;;677869;29;886;-87
2022/06/02 00:28:44;;;;;;;;;;;26.00;61.60;;;;;;677807;29;894;-89
2022/06/02 00:29:24;;;;;;;;;;;26.00;61.60;;;;;;677724;29;1907;-88
2022/06/02 00:30:00;;;;;;;;;;;26.10;61.70;;;;;;677677;29;1302;-88
2022/06/02 00:30:20;;;;;;;;;;;26.00;61.50;;;;;;677801;29;1382;-88
2022/06/02 00:30:44;;;;;;;;;;;26.00;61.50;;;;;;677826;29;1112;-89
2022/06/02 00:31:08;;;;;;;;;;;26.00;61.50;;;;;;675413;29;1271;-90
2022/06/02 00:31:28;;;;;;;;;;;26.00;61.40;;;;;;677447;29;1234;-90
2022/06/02 00:31:55;;;;;;;;;;;26.00;61.40;;;;;;677907;29;1260;-88
2022/06/02 00:32:34;;;;;;;;;;;26.00;61.50;;;;;;677832;29;804;-89
2022/06/02 00:32:59;;;;;;;;;;;26.00;61.40;;;;;;677914;29;886;-90
2022/06/02 00:33:37;;;;;;;;;;;26.00;61.40;;;;;;677754;29;1555;-89
2022/06/02 00:34:11;;;;;;;;;;;26.00;61.40;;;;;;677652;29;1453;-89
2022/06/02 00:34:58;;;;;;;;;;;26.00;61.40;;;;;;675094;29;1210;-88
2022/06/02 00:35:24;;;;;;;;;;;26.00;61.40;;;;;;672100;29;1289;-89
2022/06/02 00:36:05;;;;;;;;;;;26.00;61.30;;;;;;672467;29;1049;-87
2022/06/02 00:36:47;;;;;;;;;;;26.00;61.30;;;;;;674242;29;891;-89
2022/06/02 00:37:10;;;;;;;;;;;26.00;61.30;;;;;;669927;29;1275;-88
2022/06/02 00:37:41;;;;;;;;;;;26.10;61.40;;;;;;674513;29;1487;-88
2022/06/02 00:38:19;;;;;;;;;;;26.10;61.30;;;;;;675002;29;1553;-89
2022/06/02 00:38:40;;;;;;;;;;;26.00;61.20;;;;;;675326;29;1168;-89
2022/06/02 00:39:03;;;;;;;;;;;26.10;61.40;;;;;;674975;29;911;-89
2022/06/02 00:39:23;;;;;;;;;;;26.10;61.50;;;;;;674027;29;1186;-89
2022/06/02 00:39:45;;;;;;;;;;;26.00;61.30;;;;;;675071;29;824;-89
2022/06/02 00:40:08;;;;;;;;;;;26.10;61.30;;;;;;672398;29;1236;-89
2022/06/02 00:40:30;;;;;;;;;;;26.00;61.20;;;;;;673422;29;2024;-87
2022/06/02 00:40:51;;;;;;;;;;;26.00;61.20;;;;;;675120;29;1685;-88
2022/06/02 00:41:24;;;;;;;;;;;26.00;61.20;;;;;;672413;29;1243;-88
2022/06/02 00:41:53;;;;;;;;;;;26.00;61.20;;;;;;672506;29;973;-89
2022/06/02 00:42:26;;;;;;;;;;;26.10;61.20;;;;;;675164;29;927;-90
2022/06/02 00:42:55;;;;;;;;;;;26.00;61.20;;;;;;675025;29;955;-89
2022/06/02 00:43:25;;;;;;;;;;;26.00;61.20;;;;;;677665;29;795;-87
2022/06/02 00:43:57;;;;;;;;;;;26.00;61.20;;;;;;677692;29;1118;-87
2022/06/02 00:44:20;;;;;;;;;;;25.90;61.20;;;;;;677518;29;1379;-88
2022/06/02 00:44:55;;;;;;;;;;;26.00;61.30;;;;;;677633;29;1114;-90
2022/06/02 00:45:16;;;;;;;;;;;26.00;61.30;;;;;;677593;29;891;-86
2022/06/02 00:45:40;;;;;;;;;;;26.00;61.40;;;;;;676470;29;871;-86
2022/06/02 00:46:23;;;;;;;;;;;26.00;61.40;;;;;;677385;29;1117;-86
2022/06/02 00:47:02;;;;;;;;;;;26.00;61.40;;;;;;677612;29;1225;-90
2022/06/02 00:47:35;;;;;;;;;;;26.00;61.20;;;;;;677774;29;1381;-86
2022/06/02 00:48:08;;;;;;;;;;;26.00;61.30;;;;;;676155;29;895;-86
2022/06/02 00:48:40;;;;;;;;;;;26.00;61.30;;;;;;672627;29;1151;-88
2022/06/02 00:49:03;;;;;;;;;;;26.00;61.30;;;;;;672400;29;1135;-85
2022/06/02 00:49:27;;;;;;;;;;;26.00;61.10;;;;;;675066;29;1208;-89
2022/06/02 00:49:53;;;;;;;;;;;26.00;61.30;;;;;;675035;29;895;-87
2022/06/02 00:50:16;;;;;;;;;;;26.00;61.30;;;;;;675436;29;827;-88
2022/06/02 00:50:37;;;;;;;;;;;26.00;61.40;;;;;;677702;29;1248;-85
2022/06/02 00:51:03;;;;;;;;;;;26.00;61.40;;;;;;675559;29;1486;-86
2022/06/02 00:51:29;;;;;;;;;;;26.00;61.40;;;;;;672376;29;1172;-86
2022/06/02 00:52:13;;;;;;;;;;;26.00;61.40;;;;;;672579;29;1119;-87
2022/06/02 00:52:58;;;;;;;;;;;26.00;61.40;;;;;;672964;29;1377;-86
2022/06/02 00:53:37;;;;;;;;;;;26.40;61.70;;;;;;674970;29;1663;-88
2022/06/02 00:57:56;;;;;;;;;;;26.00;61.50;;;;;;673304;29;1089;-88
2022/06/02 00:58:29;;;;;;;;;;;26.00;61.30;;;;;;672448;29;1095;-86
2022/06/02 00:59:04;;;;;;;;;;;26.00;61.40;;;;;;672590;29;820;-85
2022/06/02 00:59:43;;;;;;;;;;;26.00;61.40;;;;;;672463;29;1230;-87
2022/06/02 01:00:04;;;;;;;;;;;26.00;61.50;;;;;;674784;29;1512;-88
2022/06/02 01:00:45;;;;;;;;;;;26.00;61.40;;;;;;674985;29;1395;-88
2022/06/02 01:01:12;;;;;;;;;;;26.00;61.40;;;;;;673388;29;1254;-87
2022/06/02 01:01:34;;;;;;;;;;;26.00;61.30;;;;;;675069;29;831;-85
2022/06/02 01:01:55;;;;;;;;;;;26.00;61.40;;;;;;671320;29;1077;-86
2022/06/02 01:02:16;;;;;;;;;;;26.00;61.70;;;;;;671185;29;816;-86
2022/06/02 01:02:42;;;;;;;;;;;26.00;61.60;;;;;;672405;29;1223;-85
2022/06/02 01:03:08;;;;;;;;;;;26.00;61.40;;;;;;677103;29;880;-86
2022/06/02 01:03:36;;;;;;;;;;;26.00;61.20;;;;;;677621;29;1289;-86
2022/06/02 01:03:58;;;;;;;;;;;26.00;61.30;;;;;;677746;29;1081;-85
2022/06/02 01:04:19;;;;;;;;;;;26.00;61.40;;;;;;677540;29;890;-88
2022/06/02 01:04:42;;;;;;;;;;;26.00;61.20;;;;;;677566;29;1543;-87
2022/06/02 01:05:03;;;;;;;;;;;26.00;61.30;;;;;;675268;29;835;-87
2022/06/02 01:05:53;;;;;;;;;;;26.00;61.20;;;;;;675827;29;1350;-88
2022/06/02 01:06:25;;;;;;;;;;;26.00;61.10;;;;;;675101;29;1494;-86
2022/06/02 01:06:51;;;;;;;;;;;26.00;61.30;;;;;;677410;29;1263;-88
2022/06/02 01:07:43;;;;;;;;;;;26.00;61.00;;;;;;676767;29;887;-85
2022/06/02 01:08:04;;;;;;;;;;;26.00;61.30;;;;;;674955;29;1216;-88
2022/06/02 01:08:42;;;;;;;;;;;26.00;61.40;;;;;;675047;29;1231;-86
2022/06/02 01:09:21;;;;;;;;;;;25.90;61.10;;;;;;674899;29;1553;-88
2022/06/02 01:10:11;;;;;;;;;;;26.00;61.30;;;;;;674986;29;804;-86
2022/06/02 01:10:43;;;;;;;;;;;25.90;61.10;;;;;;672346;29;1345;-86
2022/06/02 01:11:07;;;;;;;;;;;25.90;61.00;;;;;;672599;29;1126;-86
2022/06/02 01:11:37;;;;;;;;;;;26.00;61.00;;;;;;672467;29;1721;-86
2022/06/02 01:12:06;;;;;;;;;;;25.90;61.20;;;;;;675125;29;1569;-86
2022/06/02 01:12:26;;;;;;;;;;;25.90;60.80;;;;;;673182;29;1120;-86
2022/06/02 01:12:50;;;;;;;;;;;25.90;60.80;;;;;;672158;29;939;-88
2022/06/02 01:13:29;;;;;;;;;;;25.90;60.70;;;;;;672427;29;1152;-86
2022/06/02 01:13:52;;;;;;;;;;;25.90;60.60;;;;;;673693;29;1156;-86
2022/06/02 01:14:31;;;;;;;;;;;25.90;60.60;;;;;;672491;29;808;-86
2022/06/02 01:15:00;;;;;;;;;;;26.00;60.90;;;;;;672525;29;891;-86
2022/06/02 01:15:25;;;;;;;;;;;26.00;60.90;;;;;;672478;29;1454;-89
2022/06/02 01:16:08;;;;;;;;;;;25.90;60.90;;;;;;670622;29;1159;-89
2022/06/02 01:16:44;;;;;;;;;;;25.90;60.90;;;;;;670065;29;824;-89
2022/06/02 01:17:16;;;;;;;;;;;25.90;61.50;;;;;;669956;29;844;-89
2022/06/02 01:17:36;;;;;;;;;;;25.90;60.90;;;;;;672286;29;1224;-88
2022/06/02 01:18:05;;;;;;;;;;;25.90;61.60;;;;;;672559;29;1325;-90
2022/06/02 01:18:37;;;;;;;;;;;25.90;60.90;;;;;;672678;29;836;-90
2022/06/02 01:19:00;;;;;;;;;;;25.90;61.20;;;;;;672434;29;1146;-90
2022/06/02 01:19:35;;;;;;;;;;;25.90;61.00;;;;;;674542;29;1376;-88
2022/06/02 01:20:14;;;;;;;;;;;25.90;60.90;;;;;;672374;29;1378;-90
2022/06/02 01:20:38;;;;;;;;;;;25.90;60.80;;;;;;672395;29;1046;-90
2022/06/02 01:21:01;;;;;;;;;;;25.90;60.70;;;;;;672512;29;1097;-90
2022/06/02 01:21:37;;;;;;;;;;;25.90;60.90;;;;;;672612;29;1202;-88
2022/06/02 01:22:07;;;;;;;;;;;25.90;60.80;;;;;;672487;29;804;-89
2022/06/02 01:22:42;;;;;;;;;;;25.90;61.20;;;;;;672592;29;899;-90
2022/06/02 01:23:21;;;;;;;;;;;25.90;61.00;;;;;;672314;29;923;-89
2022/06/02 01:23:42;;;;;;;;;;;25.90;61.20;;;;;;672320;29;1229;-89
2022/06/02 01:24:23;;;;;;;;;;;25.90;61.30;;;;;;674897;29;1116;-89
2022/06/02 01:24:49;;;;;;;;;;;25.90;61.30;;;;;;669754;29;1124;-90
2022/06/02 01:25:23;;;;;;;;;;;25.90;61.10;;;;;;669720;29;1102;-88
2022/06/02 01:25:43;;;;;;;;;;;25.90;61.30;;;;;;669842;29;1196;-89
2022/06/02 01:26:07;;;;;;;;;;;25.90;61.10;;;;;;669797;29;1104;-89
2022/06/02 01:26:33;;;;;;;;;;;25.90;61.10;;;;;;670090;29;796;-90
2022/06/02 01:27:11;;;;;;;;;;;25.90;60.80;;;;;;669806;29;1287;-88
2022/06/02 01:27:31;;;;;;;;;;;25.90;60.90;;;;;;669866;29;865;-89
2022/06/02 01:27:55;;;;;;;;;;;25.90;61.20;;;;;;672445;29;1232;-89
2022/06/02 01:28:25;;;;;;;;;;;25.90;61.30;;;;;;672303;29;1207;-89
2022/06/02 01:28:48;;;;;;;;;;;25.90;61.40;;;;;;672137;29;1609;-88
2022/06/02 01:29:11;;;;;;;;;;;25.90;61.50;;;;;;674939;29;1911;-89
2022/06/02 01:29:38;;;;;;;;;;;25.90;61.60;;;;;;674837;29;1596;-88
2022/06/02 01:30:17;;;;;;;;;;;25.90;61.60;;;;;;674632;29;1214;-89
2022/06/02 01:30:40;;;;;;;;;;;25.90;61.50;;;;;;674373;29;1370;-87
2022/06/02 01:31:12;;;;;;;;;;;25.90;61.50;;;;;;673493;29;1370;-88
2022/06/02 01:31:39;;;;;;;;;;;25.90;61.50;;;;;;674729;29;789;-86
2022/06/02 01:32:06;;;;;;;;;;;25.90;61.40;;;;;;674912;29;1434;-86
2022/06/02 01:32:35;;;;;;;;;;;25.90;61.50;;;;;;675611;29;875;-87
2022/06/02 01:32:55;;;;;;;;;;;25.90;61.50;;;;;;672984;29;1219;-87
2022/06/02 01:33:16;;;;;;;;;;;25.90;61.60;;;;;;675480;29;1494;-86
2022/06/02 01:33:43;;;;;;;;;;;25.90;61.70;;;;;;675297;29;887;-87
2022/06/02 01:34:07;;;;;;;;;;;25.90;61.60;;;;;;675336;29;1266;-89
2022/06/02 01:34:43;;;;;;;;;;;25.90;61.50;;;;;;675687;29;879;-87
2022/06/02 01:35:04;;;;;;;;;;;25.90;61.50;;;;;;677153;29;1254;-90
2022/06/02 01:35:36;;;;;;;;;;;25.90;61.70;;;;;;677311;29;1207;-89
2022/06/02 01:36:12;;;;;;;;;;;25.90;61.50;;;;;;677048;29;863;-89
2022/06/02 01:36:40;;;;;;;;;;;25.90;61.50;;;;;;677983;29;1194;-88
2022/06/02 01:37:19;;;;;;;;;;;25.90;61.40;;;;;;678031;29;1312;-89
2022/06/02 01:37:39;;;;;;;;;;;25.90;61.40;;;;;;675449;29;907;-89
2022/06/02 01:38:06;;;;;;;;;;;25.90;61.50;;;;;;677832;29;1128;-88
2022/06/02 01:38:41;;;;;;;;;;;24.40;60.60;;;;;;676628;29;935;-89
2022/06/02 01:39:04;;;;;;;;;;;26.00;61.50;;;;;;675279;29;1185;-87
2022/06/02 01:39:25;;;;;;;;;;;25.90;61.60;;;;;;675638;29;879;-89
2022/06/02 01:40:04;;;;;;;;;;;25.90;61.50;;;;;;675528;29;867;-88
2022/06/02 01:40:44;;;;;;;;;;;25.90;61.40;;;;;;678096;29;1379;-90
2022/06/02 01:41:12;;;;;;;;;;;26.00;61.40;;;;;;678061;29;788;-89
2022/06/02 01:41:35;;;;;;;;;;;25.90;61.40;;;;;;678005;29;1457;-86
2022/06/02 01:41:58;;;;;;;;;;;25.90;61.30;;;;;;677971;29;1274;-88
2022/06/02 01:42:18;;;;;;;;;;;25.90;61.30;;;;;;676448;29;1412;-87
2022/06/02 01:42:39;;;;;;;;;;;25.90;61.30;;;;;;675544;29;828;-87
2022/06/02 01:43:20;;;;;;;;;;;25.90;61.30;;;;;;678036;29;1288;-88
2022/06/02 01:43:50;;;;;;;;;;;25.90;61.30;;;;;;672266;29;1150;-89
2022/06/02 01:44:16;;;;;;;;;;;25.90;61.20;;;;;;670230;29;896;-89
2022/06/02 01:44:44;;;;;;;;;;;26.00;61.30;;;;;;670127;29;1147;-88
2022/06/02 01:45:13;;;;;;;;;;;26.00;61.30;;;;;;662663;29;1223;-90
2022/06/02 01:45:59;;;;;;;;;;;26.00;61.40;;;;;;664038;29;1118;-88
2022/06/02 01:46:27;;;;;;;;;;;26.00;61.20;;;;;;669845;29;1305;-89
2022/06/02 01:46:53;;;;;;;;;;;26.00;61.20;;;;;;667521;29;1220;-88
2022/06/02 01:47:18;;;;;;;;;;;26.00;61.20;;;;;;667621;29;1231;-89
2022/06/02 01:47:43;;;;;;;;;;;25.60;61.00;;;;;;665123;29;1173;-89
2022/06/02 01:48:22;;;;;;;;;;;26.00;61.20;;;;;;666345;29;988;-88
2022/06/02 01:49:18;;;;;;;;;;;26.00;61.20;;;;;;669619;29;1317;-89
2022/06/02 01:49:41;;;;;;;;;;;26.00;61.20;;;;;;670322;29;1377;-88
2022/06/02 01:50:20;;;;;;;;;;;26.00;61.20;;;;;;670186;29;872;-89
2022/06/02 01:50:41;;;;;;;;;;;26.00;61.20;;;;;;668199;29;1092;-89
2022/06/02 01:51:11;;;;;;;;;;;26.00;61.10;;;;;;670226;29;1412;-89
2022/06/02 01:51:34;;;;;;;;;;;26.00;61.10;;;;;;670415;29;983;-89
2022/06/02 01:51:54;;;;;;;;;;;26.00;61.10;;;;;;670414;29;1233;-89
2022/06/02 01:52:20;;;;;;;;;;;26.00;61.10;;;;;;670340;29;793;-89
2022/06/02 01:52:44;;;;;;;;;;;26.00;61.10;;;;;;667839;29;1053;-89
2022/06/02 01:53:07;;;;;;;;;;;26.00;61.10;;;;;;665259;29;868;-87
2022/06/02 01:53:43;;;;;;;;;;;26.00;61.10;;;;;;665322;29;915;-88
2022/06/02 01:54:10;;;;;;;;;;;26.00;61.10;;;;;;670212;29;1607;-88
2022/06/02 01:54:41;;;;;;;;;;;26.00;61.00;;;;;;667890;29;1056;-90
2022/06/02 01:55:04;;;;;;;;;;;26.00;61.00;;;;;;667687;29;1223;-89
2022/06/02 01:55:42;;;;;;;;;;;26.00;61.10;;;;;;667845;29;801;-90
2022/06/02 01:56:14;;;;;;;;;;;26.00;61.00;;;;;;665290;29;1268;-87
2022/06/02 01:56:37;;;;;;;;;;;26.00;60.90;;;;;;665057;29;1281;-90
2022/06/02 01:56:58;;;;;;;;;;;26.00;61.10;;;;;;667354;29;928;-89
2022/06/02 01:57:57;;;;;;;;;;;26.00;61.00;;;;;;670260;29;1392;-88
2022/06/02 01:58:25;;;;;;;;;;;26.00;61.00;;;;;;667861;29;876;-89
2022/06/02 01:59:06;;;;;;;;;;;26.00;61.00;;;;;;670169;29;952;-89
2022/06/02 01:59:36;;;;;;;;;;;26.00;61.00;;;;;;664890;29;1488;-89
2022/06/02 02:00:00;;;;;;;;;;;26.00;60.90;;;;;;667664;29;1244;-90
2022/06/02 02:00:25;;;;;;;;;;;26.00;61.00;;;;;;667798;29;812;-88
2022/06/02 02:00:51;;;;;;;;;;;26.00;61.00;;;;;;667772;29;745;-88
2022/06/02 02:01:27;;;;;;;;;;;26.00;61.10;;;;;;665560;29;1095;-88
2022/06/02 02:01:50;;;;;;;;;;;26.00;61.00;;;;;;666459;29;1445;-88
2022/06/02 02:02:29;;;;;;;;;;;26.00;61.10;;;;;;667599;29;1185;-89
2022/06/02 02:03:02;;;;;;;;;;;26.00;61.00;;;;;;667746;29;1377;-88
2022/06/02 02:03:29;;;;;;;;;;;26.00;61.00;;;;;;667768;29;789;-89
2022/06/02 02:04:06;;;;;;;;;;;26.00;61.00;;;;;;665212;29;1196;-87
2022/06/02 02:04:32;;;;;;;;;;;26.00;61.00;;;;;;665132;29;1228;-89
2022/06/02 02:05:14;;;;;;;;;;;26.00;61.00;;;;;;667852;29;908;-89
2022/06/02 02:05:39;;;;;;;;;;;26.00;60.90;;;;;;667879;29;1209;-90
2022/06/02 02:06:25;;;;;;;;;;;26.00;61.00;;;;;;670326;29;888;-90
2022/06/02 02:06:45;;;;;;;;;;;26.00;61.00;;;;;;670229;29;1547;-88
2022/06/02 02:07:15;;;;;;;;;;;26.00;61.00;;;;;;670203;29;887;-89
2022/06/02 02:07:38;;;;;;;;;;;26.00;61.00;;;;;;670274;29;888;-88
2022/06/02 02:08:01;;;;;;;;;;;26.00;60.90;;;;;;670363;29;801;-89
2022/06/02 02:08:24;;;;;;;;;;;26.00;60.90;;;;;;670326;29;829;-90
2022/06/02 02:08:47;;;;;;;;;;;26.00;60.80;;;;;;667954;29;797;-90
2022/06/02 02:09:11;;;;;;;;;;;26.00;60.90;;;;;;667653;29;1907;-89
2022/06/02 02:09:50;;;;;;;;;;;26.00;60.90;;;;;;667656;29;769;-88
2022/06/02 02:10:10;;;;;;;;;;;26.00;60.80;;;;;;667580;29;1157;-89
2022/06/02 02:10:34;;;;;;;;;;;26.00;60.90;;;;;;669904;29;1220;-89
2022/06/02 02:11:04;;;;;;;;;;;26.00;60.90;;;;;;670212;29;1268;-87
2022/06/02 02:11:43;;;;;;;;;;;26.00;60.90;;;;;;667865;29;1354;-89
2022/06/02 02:12:09;;;;;;;;;;;26.00;60.70;;;;;;667728;29;1212;-88
2022/06/02 02:12:29;;;;;;;;;;;26.00;60.80;;;;;;665548;29;785;-88
2022/06/02 02:12:55;;;;;;;;;;;26.00;60.80;;;;;;665088;29;1340;-89
2022/06/02 02:13:19;;;;;;;;;;;26.00;60.70;;;;;;668929;29;1516;-88
2022/06/02 02:13:48;;;;;;;;;;;26.00;60.90;;;;;;667583;29;848;-88
2022/06/02 02:14:34;;;;;;;;;;;26.00;60.80;;;;;;667696;29;804;-88
2022/06/02 02:15:16;;;;;;;;;;;26.00;60.90;;;;;;664011;29;1204;-89
2022/06/02 02:15:40;;;;;;;;;;;26.00;60.80;;;;;;669551;29;1099;-89
2022/06/02 02:16:12;;;;;;;;;;;26.00;60.90;;;;;;667654;29;1213;-90
2022/06/02 02:16:51;;;;;;;;;;;26.00;61.00;;;;;;667306;29;894;-88
2022/06/02 02:17:29;;;;;;;;;;;26.00;61.00;;;;;;667557;29;1178;-88
2022/06/02 02:17:56;;;;;;;;;;;26.00;60.90;;;;;;666230;29;935;-90
2022/06/02 02:18:17;;;;;;;;;;;26.00;60.90;;;;;;667615;29;1223;-89
2022/06/02 02:18:56;;;;;;;;;;;26.00;60.90;;;;;;669703;29;1505;-90
2022/06/02 02:19:24;;;;;;;;;;;25.90;60.90;;;;;;670137;29;1281;-89
2022/06/02 02:19:44;;;;;;;;;;;26.00;60.90;;;;;;670113;29;1112;-90
2022/06/02 02:20:14;;;;;;;;;;;25.90;60.50;;;;;;669685;29;1311;-88
2022/06/02 02:21:06;;;;;;;;;;;25.90;60.70;;;;;;668237;29;1330;-90
2022/06/02 02:21:32;;;;;;;;;;;25.90;60.90;;;;;;662751;29;1393;-88
2022/06/02 02:22:08;;;;;;;;;;;25.90;60.60;;;;;;662538;29;1284;-88
2022/06/02 02:22:34;;;;;;;;;;;25.90;60.60;;;;;;669477;29;985;-86
2022/06/02 02:23:18;;;;;;;;;;;25.90;60.80;;;;;;670254;29;1311;-89
2022/06/02 02:23:47;;;;;;;;;;;26.00;60.90;;;;;;672668;29;1251;-88
2022/06/02 02:24:08;;;;;;;;;;;25.90;60.60;;;;;;672740;29;887;-90
2022/06/02 02:24:34;;;;;;;;;;;25.90;60.40;;;;;;670261;29;1233;-89
2022/06/02 02:25:00;;;;;;;;;;;25.90;60.40;;;;;;667357;29;1352;-89
2022/06/02 02:25:21;;;;;;;;;;;25.90;60.50;;;;;;667826;29;1378;-88
2022/06/02 02:25:49;;;;;;;;;;;25.90;60.50;;;;;;670084;29;1207;-89
2022/06/02 02:26:19;;;;;;;;;;;25.90;60.70;;;;;;670086;29;1243;-88
2022/06/02 02:26:43;;;;;;;;;;;25.90;60.80;;;;;;670140;29;1146;-88
2022/06/02 02:27:07;;;;;;;;;;;26.00;60.80;;;;;;669849;29;1091;-90
2022/06/02 02:27:27;;;;;;;;;;;25.90;60.80;;;;;;667762;29;856;-88
2022/06/02 02:28:05;;;;;;;;;;;25.90;60.80;;;;;;667615;29;1106;-88
2022/06/02 02:28:43;;;;;;;;;;;25.90;60.70;;;;;;665723;29;1187;-90
2022/06/02 02:29:22;;;;;;;;;;;25.90;60.50;;;;;;665082;29;1300;-88
2022/06/02 02:29:46;;;;;;;;;;;25.90;60.50;;;;;;666671;29;908;-89
2022/06/02 02:30:08;;;;;;;;;;;25.90;60.50;;;;;;668316;29;1349;-89
2022/06/02 02:30:38;;;;;;;;;;;25.90;60.90;;;;;;672907;29;851;-88
2022/06/02 02:31:05;;;;;;;;;;;25.90;60.90;;;;;;671951;29;1203;-89
2022/06/02 02:31:25;;;;;;;;;;;25.80;60.80;;;;;;670228;29;841;-89
2022/06/02 02:32:03;;;;;;;;;;;25.90;60.60;;;;;;670185;29;1244;-89
2022/06/02 02:32:42;;;;;;;;;;;25.90;60.80;;;;;;670359;29;1608;-88
2022/06/02 02:33:21;;;;;;;;;;;25.90;60.80;;;;;;670249;29;872;-90
2022/06/02 02:33:49;;;;;;;;;;;25.90;60.60;;;;;;672623;29;1516;-89
2022/06/02 02:34:17;;;;;;;;;;;25.90;60.60;;;;;;670544;29;1347;-90
2022/06/02 02:34:53;;;;;;;;;;;25.90;60.60;;;;;;670122;29;1246;-88
2022/06/02 02:35:25;;;;;;;;;;;25.90;60.70;;;;;;669644;29;1403;-88
2022/06/02 02:35:49;;;;;;;;;;;25.90;60.90;;;;;;672746;29;1429;-89
2022/06/02 02:36:12;;;;;;;;;;;25.90;60.80;;;;;;670170;29;1252;-88
2022/06/02 02:36:39;;;;;;;;;;;25.90;60.80;;;;;;670147;29;820;-89
2022/06/02 02:37:03;;;;;;;;;;;25.90;60.70;;;;;;670672;29;843;-89
2022/06/02 02:37:35;;;;;;;;;;;25.90;60.80;;;;;;670280;29;1378;-88
2022/06/02 02:37:56;;;;;;;;;;;25.90;60.80;;;;;;670882;29;1203;-88
2022/06/02 02:38:24;;;;;;;;;;;25.90;60.90;;;;;;672840;29;871;-89
2022/06/02 02:38:57;;;;;;;;;;;25.90;60.80;;;;;;670167;29;1240;-87
2022/06/02 02:39:23;;;;;;;;;;;25.90;60.90;;;;;;671871;29;820;-89
2022/06/02 02:40:03;;;;;;;;;;;25.90;60.90;;;;;;673499;29;1382;-89
2022/06/02 02:40:32;;;;;;;;;;;25.90;60.60;;;;;;672832;29;1271;-89
2022/06/02 02:40:56;;;;;;;;;;;25.90;60.60;;;;;;675447;29;824;-87
2022/06/02 02:41:26;;;;;;;;;;;25.90;60.70;;;;;;675402;29;811;-89
2022/06/02 02:41:46;;;;;;;;;;;25.90;60.70;;;;;;675229;29;1542;-89
2022/06/02 02:42:13;;;;;;;;;;;25.90;61.60;;;;;;672814;29;1256;-88
2022/06/02 02:42:37;;;;;;;;;;;25.90;60.80;;;;;;675263;29;1503;-89
2022/06/02 02:43:06;;;;;;;;;;;24.90;60.20;;;;;;675115;29;871;-89
2022/06/02 02:43:27;;;;;;;;;;;25.90;60.60;;;;;;675452;29;795;-89
2022/06/02 02:44:16;;;;;;;;;;;25.90;61.20;;;;;;672687;29;1184;-90
2022/06/02 02:44:47;;;;;;;;;;;25.90;60.70;;;;;;672657;29;1218;-88
2022/06/02 02:45:24;;;;;;;;;;;25.90;61.00;;;;;;669838;29;1118;-89
2022/06/02 02:46:03;;;;;;;;;;;25.90;60.90;;;;;;672283;29;781;-88
2022/06/02 02:46:41;;;;;;;;;;;25.90;60.90;;;;;;673515;29;891;-90
2022/06/02 02:47:09;;;;;;;;;;;25.90;61.10;;;;;;674183;29;1083;-89
2022/06/02 02:47:29;;;;;;;;;;;25.90;61.10;;;;;;672652;29;781;-89
2022/06/02 02:48:08;;;;;;;;;;;25.90;61.20;;;;;;672506;29;1230;-89
2022/06/02 02:48:31;;;;;;;;;;;25.90;61.20;;;;;;672826;29;1085;-89
2022/06/02 02:49:02;;;;;;;;;;;25.90;61.30;;;;;;673508;29;1217;-89
2022/06/02 02:49:31;;;;;;;;;;;25.90;61.20;;;;;;673682;29;1978;-90
2022/06/02 02:50:01;;;;;;;;;;;25.90;61.30;;;;;;672732;29;1148;-87
2022/06/02 02:50:27;;;;;;;;;;;25.90;61.30;;;;;;671286;29;1136;-90
2022/06/02 02:50:53;;;;;;;;;;;25.90;61.30;;;;;;674416;29;1348;-89
2022/06/02 02:51:26;;;;;;;;;;;25.90;61.30;;;;;;675189;29;741;-87
2022/06/02 02:51:58;;;;;;;;;;;26.00;61.40;;;;;;675245;29;990;-90
2022/06/02 02:52:37;;;;;;;;;;;25.90;61.20;;;;;;672763;29;1257;-89
2022/06/02 02:53:18;;;;;;;;;;;25.90;61.20;;;;;;672801;29;1101;-90
2022/06/02 02:53:46;;;;;;;;;;;25.90;61.30;;;;;;667349;29;1324;-88
2022/06/02 02:54:11;;;;;;;;;;;25.90;61.10;;;;;;668427;29;907;-89
2022/06/02 02:54:53;;;;;;;;;;;25.90;61.20;;;;;;670124;29;1268;-90
2022/06/02 02:55:24;;;;;;;;;;;25.90;61.10;;;;;;675170;29;1202;-88
2022/06/02 02:55:56;;;;;;;;;;;25.90;61.20;;;;;;677939;29;780;-90
2022/06/02 02:56:20;;;;;;;;;;;25.90;61.20;;;;;;675192;29;1344;-89
2022/06/02 02:56:48;;;;;;;;;;;25.90;61.20;;;;;;672710;29;1284;-89
2022/06/02 02:57:23;;;;;;;;;;;25.90;61.10;;;;;;670957;29;1200;-88
2022/06/02 02:58:00;;;;;;;;;;;25.90;61.10;;;;;;672653;29;1080;-89
2022/06/02 02:58:26;;;;;;;;;;;25.90;61.10;;;;;;680314;29;1250;-90
2022/06/02 02:58:58;;;;;;;;;;;25.90;61.10;;;;;;680546;29;1318;-88
2022/06/02 02:59:32;;;;;;;;;;;25.90;62.10;;;;;;680592;29;1247;-89
2022/06/02 03:00:01;;;;;;;;;;;25.90;61.10;;;;;;675346;29;1281;-87
2022/06/02 03:00:25;;;;;;;;;;;26.00;61.10;;;;;;672818;29;1318;-90
2022/06/02 03:00:52;;;;;;;;;;;25.90;61.10;;;;;;674956;29;876;-90
2022/06/02 03:01:31;;;;;;;;;;;25.90;61.10;;;;;;676961;29;1229;-90
2022/06/02 03:01:57;;;;;;;;;;;25.90;61.00;;;;;;680386;29;879;-89
2022/06/02 03:02:21;;;;;;;;;;;25.90;61.10;;;;;;679876;29;1397;-89
2022/06/02 03:02:47;;;;;;;;;;;25.90;61.00;;;;;;678751;29;1272;-89
2022/06/02 03:03:17;;;;;;;;;;;25.90;61.00;;;;;;682345;29;1235;-90
2022/06/02 03:03:45;;;;;;;;;;;25.90;61.00;;;;;;680617;29;1142;-89